sensor_id;sensor_type;location;lat;lon;timestamp;temperature;humidity
51825;DHT22;37879;52.986;6.282;2023-04-01T00:00:16;9.90;99.90
51825;DHT22;37879;52.986;6.282;2023-04-01T00:02:42;9.90;99.90
51825;DHT22;37879;52.986;6.282;2023-04-01T00:05:08;10.20;99.90
51825;DHT22;37879;52.986;6.282;2023-04-01T00:07:36;9.30;99.90
51825;DHT22;37879;52.986;6.282;2023-04-01T00:10:03;9.90;99.90
51825;DHT22;37879;52.986;6.282;2023-04-01T00:12:29;9.90;99.90
51825;DHT22;37879;52.986;6.282;2023-04-01T00:14:55;10.40;99.90
51825;DHT22;37879;52.986;6.282;2023-04-01T00:17:21;9.90;99.90
51825;DHT22;37879;52.986;6.282;2023-04-01T00:19:46;9.90;99.90
51825;DHT22;37879;52.986;6.282;2023-04-01T00:22:12;10.10;99.90
51825;DHT22;37879;52.986;6.282;2023-04-01T00:24:38;9.90;99.90
51825;DHT22;37879;52.986;6.282;2023-04-01T00:27:04;9.90;99.90
51825;DHT22;37879;52.986;6.282;2023-04-01T00:29:30;9.90;99.90
51825;DHT22;37879;52.986;6.282;2023-04-01T00:31:57;10.30;99.90
51825;DHT22;37879;52.986;6.282;2023-04-01T00:34:23;9.90;99.90
51825;DHT22;37879;52.986;6.282;2023-04-01T00:36:50;9.90;99.90
51825;DHT22;37879;52.986;6.282;2023-04-01T00:39:16;9.90;99.90
51825;DHT22;37879;52.986;6.282;2023-04-01T00:41:42;9.90;99.90
51825;DHT22;37879;52.986;6.282;2023-04-01T00:44:26;9.80;99.90
51825;DHT22;37879;52.986;6.282;2023-04-01T00:46:52;9.80;99.90
51825;DHT22;37879;52.986;6.282;2023-04-01T00:49:21;9.80;99.90
51825;DHT22;37879;52.986;6.282;2023-04-01T00:51:51;10.50;99.90
51825;DHT22;37879;52.986;6.282;2023-04-01T00:54:19;10.30;99.90
51825;DHT22;37879;52.986;6.282;2023-04-01T00:56:53;9.80;99.90
51825;DHT22;37879;52.986;6.282;2023-04-01T00:59:31;9.80;99.90
51825;DHT22;37879;52.986;6.282;2023-04-01T01:01:59;9.80;99.90
51825;DHT22;37879;52.986;6.282;2023-04-01T01:04:31;9.80;99.90
51825;DHT22;37879;52.986;6.282;2023-04-01T01:15:30;9.80;99.90
51825;DHT22;37879;52.986;6.282;2023-04-01T01:18:02;9.70;99.90
51825;DHT22;37879;52.986;6.282;2023-04-01T01:20:56;9.70;99.90
51825;DHT22;37879;52.986;6.282;2023-04-01T01:26:37;9.70;99.90
51825;DHT22;37879;52.986;6.282;2023-04-01T01:29:28;9.70;99.90
51825;DHT22;37879;52.986;6.282;2023-04-01T01:37:20;9.60;99.90
51825;DHT22;37879;52.986;6.282;2023-04-01T01:39:54;9.90;99.90
51825;DHT22;37879;52.986;6.282;2023-04-01T01:42:22;9.60;99.90
51825;DHT22;37879;52.986;6.282;2023-04-01T01:44:50;9.60;99.90
51825;DHT22;37879;52.986;6.282;2023-04-01T01:47:19;10.70;99.90
51825;DHT22;37879;52.986;6.282;2023-04-01T01:49:46;9.60;99.90
51825;DHT22;37879;52.986;6.282;2023-04-01T01:52:13;9.60;99.90
51825;DHT22;37879;52.986;6.282;2023-04-01T01:54:52;10.60;99.90
51825;DHT22;37879;52.986;6.282;2023-04-01T01:57:31;9.50;99.90
51825;DHT22;37879;52.986;6.282;2023-04-01T02:00:02;9.50;99.90
51825;DHT22;37879;52.986;6.282;2023-04-01T02:02:31;9.50;99.90
51825;DHT22;37879;52.986;6.282;2023-04-01T02:04:57;9.50;99.90
51825;DHT22;37879;52.986;6.282;2023-04-01T02:07:30;9.50;99.90
51825;DHT22;37879;52.986;6.282;2023-04-01T02:09:57;9.50;99.90
51825;DHT22;37879;52.986;6.282;2023-04-01T02:12:24;9.50;99.90
51825;DHT22;37879;52.986;6.282;2023-04-01T02:15:06;9.50;99.90
51825;DHT22;37879;52.986;6.282;2023-04-01T02:17:34;9.50;99.90
51825;DHT22;37879;52.986;6.282;2023-04-01T02:20:09;9.40;99.90
51825;DHT22;37879;52.986;6.282;2023-04-01T02:22:47;9.50;99.90
51825;DHT22;37879;52.986;6.282;2023-04-01T02:25:17;9.40;99.90
51825;DHT22;37879;52.986;6.282;2023-04-01T02:27:44;9.40;99.90
51825;DHT22;37879;52.986;6.282;2023-04-01T02:30:13;9.70;99.90
51825;DHT22;37879;52.986;6.282;2023-04-01T02:32:39;9.40;99.90
51825;DHT22;37879;52.986;6.282;2023-04-01T02:35:11;9.90;99.90
51825;DHT22;37879;52.986;6.282;2023-04-01T02:37:38;9.40;99.90
51825;DHT22;37879;52.986;6.282;2023-04-01T02:40:06;9.40;99.90
51825;DHT22;37879;52.986;6.282;2023-04-01T02:42:33;9.30;99.90
51825;DHT22;37879;52.986;6.282;2023-04-01T02:44:59;9.30;99.90
51825;DHT22;37879;52.986;6.282;2023-04-01T02:47:25;9.30;99.90
51825;DHT22;37879;52.986;6.282;2023-04-01T02:49:50;9.70;99.90
51825;DHT22;37879;52.986;6.282;2023-04-01T02:52:16;9.60;99.90
51825;DHT22;37879;52.986;6.282;2023-04-01T02:54:42;9.30;99.90
51825;DHT22;37879;52.986;6.282;2023-04-01T02:57:07;9.30;99.90
51825;DHT22;37879;52.986;6.282;2023-04-01T02:59:33;9.30;99.90
51825;DHT22;37879;52.986;6.282;2023-04-01T03:01:59;9.40;99.90
51825;DHT22;37879;52.986;6.282;2023-04-01T03:04:24;9.40;99.90
51825;DHT22;37879;52.986;6.282;2023-04-01T03:06:50;9.40;99.90
51825;DHT22;37879;52.986;6.282;2023-04-01T03:09:16;9.40;99.90
51825;DHT22;37879;52.986;6.282;2023-04-01T03:11:42;9.40;99.90
51825;DHT22;37879;52.986;6.282;2023-04-01T03:14:08;9.40;99.90
51825;DHT22;37879;52.986;6.282;2023-04-01T03:16:33;9.40;99.90
51825;DHT22;37879;52.986;6.282;2023-04-01T03:18:59;9.40;99.90
51825;DHT22;37879;52.986;6.282;2023-04-01T03:21:27;9.40;99.90
51825;DHT22;37879;52.986;6.282;2023-04-01T03:23:53;9.40;99.90
51825;DHT22;37879;52.986;6.282;2023-04-01T03:26:19;9.40;99.90
51825;DHT22;37879;52.986;6.282;2023-04-01T03:28:45;9.40;99.90
51825;DHT22;37879;52.986;6.282;2023-04-01T03:31:11;9.40;99.90
51825;DHT22;37879;52.986;6.282;2023-04-01T03:33:36;9.40;99.90
51825;DHT22;37879;52.986;6.282;2023-04-01T03:36:03;9.40;99.90
51825;DHT22;37879;52.986;6.282;2023-04-01T03:38:32;9.40;99.90
51825;DHT22;37879;52.986;6.282;2023-04-01T03:40:58;9.40;99.90
51825;DHT22;37879;52.986;6.282;2023-04-01T03:43:24;9.50;99.90
51825;DHT22;37879;52.986;6.282;2023-04-01T03:45:51;9.50;99.90
51825;DHT22;37879;52.986;6.282;2023-04-01T03:48:18;10.50;99.90
51825;DHT22;37879;52.986;6.282;2023-04-01T03:50:44;10.20;99.90
51825;DHT22;37879;52.986;6.282;2023-04-01T03:53:10;9.40;99.90
51825;DHT22;37879;52.986;6.282;2023-04-01T03:55:37;9.40;99.90
51825;DHT22;37879;52.986;6.282;2023-04-01T03:58:05;9.40;99.90
51825;DHT22;37879;52.986;6.282;2023-04-01T04:00:31;9.40;99.90
51825;DHT22;37879;52.986;6.282;2023-04-01T04:02:58;9.50;99.90
51825;DHT22;37879;52.986;6.282;2023-04-01T04:05:25;9.30;99.90
51825;DHT22;37879;52.986;6.282;2023-04-01T04:07:51;9.30;99.90
51825;DHT22;37879;52.986;6.282;2023-04-01T04:10:17;9.30;99.90
51825;DHT22;37879;52.986;6.282;2023-04-01T04:12:43;9.20;99.90
51825;DHT22;37879;52.986;6.282;2023-04-01T04:15:09;9.20;99.90
51825;DHT22;37879;52.986;6.282;2023-04-01T04:17:35;9.20;99.90
51825;DHT22;37879;52.986;6.282;2023-04-01T04:20:01;9.20;99.90
51825;DHT22;37879;52.986;6.282;2023-04-01T04:22:27;9.20;99.90
51825;DHT22;37879;52.986;6.282;2023-04-01T04:24:53;9.20;99.90
51825;DHT22;37879;52.986;6.282;2023-04-01T04:27:19;9.20;99.90
51825;DHT22;37879;52.986;6.282;2023-04-01T04:29:45;9.30;99.90
51825;DHT22;37879;52.986;6.282;2023-04-01T04:32:10;9.30;99.90
51825;DHT22;37879;52.986;6.282;2023-04-01T04:34:36;9.80;99.90
51825;DHT22;37879;52.986;6.282;2023-04-01T04:37:02;9.30;99.90
51825;DHT22;37879;52.986;6.282;2023-04-01T04:39:27;9.30;99.90
51825;DHT22;37879;52.986;6.282;2023-04-01T04:41:53;9.30;99.90
51825;DHT22;37879;52.986;6.282;2023-04-01T04:44:19;9.30;99.90
51825;DHT22;37879;52.986;6.282;2023-04-01T04:46:44;9.30;99.90
51825;DHT22;37879;52.986;6.282;2023-04-01T04:49:10;9.30;99.90
51825;DHT22;37879;52.986;6.282;2023-04-01T04:51:36;9.40;99.90
51825;DHT22;37879;52.986;6.282;2023-04-01T04:54:02;9.70;99.90
51825;DHT22;37879;52.986;6.282;2023-04-01T04:56:28;9.40;99.90
51825;DHT22;37879;52.986;6.282;2023-04-01T04:58:54;9.40;99.90
51825;DHT22;37879;52.986;6.282;2023-04-01T05:01:20;9.40;99.90
51825;DHT22;37879;52.986;6.282;2023-04-01T05:03:46;9.40;99.90
51825;DHT22;37879;52.986;6.282;2023-04-01T05:06:16;9.40;99.90
51825;DHT22;37879;52.986;6.282;2023-04-01T05:08:43;9.40;99.90
51825;DHT22;37879;52.986;6.282;2023-04-01T05:11:17;9.40;99.90
51825;DHT22;37879;52.986;6.282;2023-04-01T05:13:44;9.40;99.90
51825;DHT22;37879;52.986;6.282;2023-04-01T05:16:15;9.50;99.90
51825;DHT22;37879;52.986;6.282;2023-04-01T05:18:42;9.50;99.90
51825;DHT22;37879;52.986;6.282;2023-04-01T05:21:09;10.20;99.90
51825;DHT22;37879;52.986;6.282;2023-04-01T05:23:35;9.50;99.90
51825;DHT22;37879;52.986;6.282;2023-04-01T05:26:10;10.50;99.90
51825;DHT22;37879;52.986;6.282;2023-04-01T05:28:36;9.50;99.90
51825;DHT22;37879;52.986;6.282;2023-04-01T05:31:05;9.50;99.90
51825;DHT22;37879;52.986;6.282;2023-04-01T05:33:31;9.50;99.90
51825;DHT22;37879;52.986;6.282;2023-04-01T05:38:33;9.50;99.90
51825;DHT22;37879;52.986;6.282;2023-04-01T05:41:00;9.70;99.90
51825;DHT22;37879;52.986;6.282;2023-04-01T05:43:26;9.60;99.90
51825;DHT22;37879;52.986;6.282;2023-04-01T05:45:51;9.60;99.90
51825;DHT22;37879;52.986;6.282;2023-04-01T05:48:17;9.70;99.90
51825;DHT22;37879;52.986;6.282;2023-04-01T05:50:42;9.60;99.90
51825;DHT22;37879;52.986;6.282;2023-04-01T05:53:08;9.60;99.90
51825;DHT22;37879;52.986;6.282;2023-04-01T05:55:35;9.60;99.90
51825;DHT22;37879;52.986;6.282;2023-04-01T05:58:01;10.10;99.90
51825;DHT22;37879;52.986;6.282;2023-04-01T06:00:27;10.10;99.90
51825;DHT22;37879;52.986;6.282;2023-04-01T06:02:53;9.80;99.90
51825;DHT22;37879;52.986;6.282;2023-04-01T06:05:24;9.60;99.90
51825;DHT22;37879;52.986;6.282;2023-04-01T06:07:57;9.60;99.90
51825;DHT22;37879;52.986;6.282;2023-04-01T06:10:38;10.20;99.90
51825;DHT22;37879;52.986;6.282;2023-04-01T06:27:25;9.70;99.90
51825;DHT22;37879;52.986;6.282;2023-04-01T06:32:58;9.70;99.90
51825;DHT22;37879;52.986;6.282;2023-04-01T06:41:08;9.70;99.90
51825;DHT22;37879;52.986;6.282;2023-04-01T06:44:21;9.70;99.90
51825;DHT22;37879;52.986;6.282;2023-04-01T06:49:44;9.70;99.90
51825;DHT22;37879;52.986;6.282;2023-04-01T06:57:59;9.60;99.90
51825;DHT22;37879;52.986;6.282;2023-04-01T07:00:32;9.60;99.90
51825;DHT22;37879;52.986;6.282;2023-04-01T07:03:06;9.60;99.90
51825;DHT22;37879;52.986;6.282;2023-04-01T07:05:35;9.60;99.90
51825;DHT22;37879;52.986;6.282;2023-04-01T07:08:08;10.40;99.90
51825;DHT22;37879;52.986;6.282;2023-04-01T07:10:41;10.30;99.90
51825;DHT22;37879;52.986;6.282;2023-04-01T07:13:29;9.60;99.90
51825;DHT22;37879;52.986;6.282;2023-04-01T07:16:26;9.80;99.90
51825;DHT22;37879;52.986;6.282;2023-04-01T07:22:03;9.60;99.90
51825;DHT22;37879;52.986;6.282;2023-04-01T07:24:36;9.60;99.90
51825;DHT22;37879;52.986;6.282;2023-04-01T07:27:02;9.90;99.90
51825;DHT22;37879;52.986;6.282;2023-04-01T07:29:28;9.70;99.90
51825;DHT22;37879;52.986;6.282;2023-04-01T07:37:34;9.80;99.90
51825;DHT22;37879;52.986;6.282;2023-04-01T07:42:38;9.80;99.90
51825;DHT22;37879;52.986;6.282;2023-04-01T07:51:14;9.90;99.90
51825;DHT22;37879;52.986;6.282;2023-04-01T07:56:30;9.90;99.90
51825;DHT22;37879;52.986;6.282;2023-04-01T07:59:14;9.90;99.90
51825;DHT22;37879;52.986;6.282;2023-04-01T08:02:13;10.00;99.90
51825;DHT22;37879;52.986;6.282;2023-04-01T08:05:04;10.00;99.90
51825;DHT22;37879;52.986;6.282;2023-04-01T08:10:10;10.00;99.90
51825;DHT22;37879;52.986;6.282;2023-04-01T08:12:42;10.00;99.90
51825;DHT22;37879;52.986;6.282;2023-04-01T08:20:39;10.00;99.90
51825;DHT22;37879;52.986;6.282;2023-04-01T08:23:21;10.10;99.90
51825;DHT22;37879;52.986;6.282;2023-04-01T08:31:53;10.00;99.90
51825;DHT22;37879;52.986;6.282;2023-04-01T08:34:41;10.00;99.90
51825;DHT22;37879;52.986;6.282;2023-04-01T08:37:28;10.10;99.90
51825;DHT22;37879;52.986;6.282;2023-04-01T08:40:09;10.50;99.90
51825;DHT22;37879;52.986;6.282;2023-04-01T08:52:52;10.00;99.90
51825;DHT22;37879;52.986;6.282;2023-04-01T09:00:36;10.20;99.90
51825;DHT22;37879;52.986;6.282;2023-04-01T09:13:42;11.30;99.90
51825;DHT22;37879;52.986;6.282;2023-04-01T09:22:21;10.40;99.90
51825;DHT22;37879;52.986;6.282;2023-04-01T09:32:58;9.50;99.90
51825;DHT22;37879;52.986;6.282;2023-04-01T09:38:30;10.50;99.90
51825;DHT22;37879;52.986;6.282;2023-04-01T09:46:37;10.60;99.90
51825;DHT22;37879;52.986;6.282;2023-04-01T10:07:03;10.90;99.90
51825;DHT22;37879;52.986;6.282;2023-04-01T10:20:54;10.90;99.90
51825;DHT22;37879;52.986;6.282;2023-04-01T10:51:23;10.40;99.90
51825;DHT22;37879;52.986;6.282;2023-04-01T10:57:02;10.40;99.90
51825;DHT22;37879;52.986;6.282;2023-04-01T11:08:51;10.20;99.90
51825;DHT22;37879;52.986;6.282;2023-04-01T11:13:54;10.10;99.90
51825;DHT22;37879;52.986;6.282;2023-04-01T11:22:58;10.20;99.90
51825;DHT22;37879;52.986;6.282;2023-04-01T11:31:32;10.20;99.90
51825;DHT22;37879;52.986;6.282;2023-04-01T11:44:58;10.00;99.90
51825;DHT22;37879;52.986;6.282;2023-04-01T11:47:37;10.30;99.90
51825;DHT22;37879;52.986;6.282;2023-04-01T12:07:06;9.80;99.90
51825;DHT22;37879;52.986;6.282;2023-04-01T12:15:00;10.20;99.90
51825;DHT22;37879;52.986;6.282;2023-04-01T12:18:03;10.00;99.90
51825;DHT22;37879;52.986;6.282;2023-04-01T12:23:41;10.10;99.90
51825;DHT22;37879;52.986;6.282;2023-04-01T12:32:09;10.30;99.90
51825;DHT22;37879;52.986;6.282;2023-04-01T12:35:44;10.30;99.90
51825;DHT22;37879;52.986;6.282;2023-04-01T12:38:16;10.50;99.90
51825;DHT22;37879;52.986;6.282;2023-04-01T12:41:14;10.30;99.90
51825;DHT22;37879;52.986;6.282;2023-04-01T12:43:54;10.30;99.90
51825;DHT22;37879;52.986;6.282;2023-04-01T12:49:15;10.20;99.90
51825;DHT22;37879;52.986;6.282;2023-04-01T12:54:54;10.20;99.90
51825;DHT22;37879;52.986;6.282;2023-04-01T13:11:42;10.00;99.90
51825;DHT22;37879;52.986;6.282;2023-04-01T13:14:33;10.00;99.90
51825;DHT22;37879;52.986;6.282;2023-04-01T13:17:10;10.00;99.90
51825;DHT22;37879;52.986;6.282;2023-04-01T13:19:47;10.00;99.90
51825;DHT22;37879;52.986;6.282;2023-04-01T13:22:23;10.60;99.90
51825;DHT22;37879;52.986;6.282;2023-04-01T13:25:04;10.00;99.90
51825;DHT22;37879;52.986;6.282;2023-04-01T13:27:42;9.90;99.90
51825;DHT22;37879;52.986;6.282;2023-04-01T13:30:49;9.90;99.90
51825;DHT22;37879;52.986;6.282;2023-04-01T13:33:36;10.10;99.90
51825;DHT22;37879;52.986;6.282;2023-04-01T13:36:08;9.90;99.90
51825;DHT22;37879;52.986;6.282;2023-04-01T13:38:56;10.10;99.90
51825;DHT22;37879;52.986;6.282;2023-04-01T13:58:16;9.50;99.90
51825;DHT22;37879;52.986;6.282;2023-04-01T14:16:57;9.50;99.90
51825;DHT22;37879;52.986;6.282;2023-04-01T14:25:36;9.40;99.90
51825;DHT22;37879;52.986;6.282;2023-04-01T14:28:33;9.40;99.90
51825;DHT22;37879;52.986;6.282;2023-04-01T14:40:05;9.30;99.90
51825;DHT22;37879;52.986;6.282;2023-04-01T14:50:53;9.10;99.90
51825;DHT22;37879;52.986;6.282;2023-04-01T14:55:59;9.00;99.90
51825;DHT22;37879;52.986;6.282;2023-04-01T14:58:45;9.10;99.90
51825;DHT22;37879;52.986;6.282;2023-04-01T15:01:14;9.10;99.90
51825;DHT22;37879;52.986;6.282;2023-04-01T15:10:00;9.10;99.90
51825;DHT22;37879;52.986;6.282;2023-04-01T15:12:36;9.20;99.90
51825;DHT22;37879;52.986;6.282;2023-04-01T15:20:22;9.20;99.90
51825;DHT22;37879;52.986;6.282;2023-04-01T15:26:17;9.00;99.90
51825;DHT22;37879;52.986;6.282;2023-04-01T15:34:35;8.90;99.90
51825;DHT22;37879;52.986;6.282;2023-04-01T15:37:10;8.90;99.90
51825;DHT22;37879;52.986;6.282;2023-04-01T15:48:18;8.70;99.90
51825;DHT22;37879;52.986;6.282;2023-04-01T15:51:02;9.20;99.90
51825;DHT22;37879;52.986;6.282;2023-04-01T15:53:54;8.70;99.90
51825;DHT22;37879;52.986;6.282;2023-04-01T16:01:38;8.50;99.90
51825;DHT22;37879;52.986;6.282;2023-04-01T16:07:29;8.50;99.90
51825;DHT22;37879;52.986;6.282;2023-04-01T16:19:01;8.30;99.90
51825;DHT22;37879;52.986;6.282;2023-04-01T16:21:58;8.30;99.90
51825;DHT22;37879;52.986;6.282;2023-04-01T16:29:56;8.20;99.90
51825;DHT22;37879;52.986;6.282;2023-04-01T16:35:22;8.10;99.90
51825;DHT22;37879;52.986;6.282;2023-04-01T16:38:04;8.10;99.90
51825;DHT22;37879;52.986;6.282;2023-04-01T16:43:37;8.10;99.90
51825;DHT22;37879;52.986;6.282;2023-04-01T16:46:26;8.00;99.90
51825;DHT22;37879;52.986;6.282;2023-04-01T16:51:37;8.00;99.90
51825;DHT22;37879;52.986;6.282;2023-04-01T17:06:07;7.50;99.90
51825;DHT22;37879;52.986;6.282;2023-04-01T17:11:27;7.50;99.90
51825;DHT22;37879;52.986;6.282;2023-04-01T17:25:13;7.60;99.90
51825;DHT22;37879;52.986;6.282;2023-04-01T17:27:57;7.60;99.90
51825;DHT22;37879;52.986;6.282;2023-04-01T17:30:39;7.50;99.90
51825;DHT22;37879;52.986;6.282;2023-04-01T17:39:00;7.30;99.90
51825;DHT22;37879;52.986;6.282;2023-04-01T17:41:54;7.20;99.90
51825;DHT22;37879;52.986;6.282;2023-04-01T18:01:25;7.00;99.90
51825;DHT22;37879;52.986;6.282;2023-04-01T18:03:57;6.90;99.90
51825;DHT22;37879;52.986;6.282;2023-04-01T18:09:46;6.80;99.90
51825;DHT22;37879;52.986;6.282;2023-04-01T18:12:34;6.80;99.90
51825;DHT22;37879;52.986;6.282;2023-04-01T18:17:57;6.70;99.90
51825;DHT22;37879;52.986;6.282;2023-04-01T18:20:50;6.70;99.90
51825;DHT22;37879;52.986;6.282;2023-04-01T18:23:40;6.60;99.90
51825;DHT22;37879;52.986;6.282;2023-04-01T18:26:31;6.60;99.90
51825;DHT22;37879;52.986;6.282;2023-04-01T18:37:25;6.60;99.90
51825;DHT22;37879;52.986;6.282;2023-04-01T18:40:23;6.60;99.90
51825;DHT22;37879;52.986;6.282;2023-04-01T18:45:50;6.60;99.90
51825;DHT22;37879;52.986;6.282;2023-04-01T18:48:51;6.60;99.90
51825;DHT22;37879;52.986;6.282;2023-04-01T18:51:21;6.50;99.90
51825;DHT22;37879;52.986;6.282;2023-04-01T18:53:53;6.50;99.90
51825;DHT22;37879;52.986;6.282;2023-04-01T18:56:34;6.50;99.90
51825;DHT22;37879;52.986;6.282;2023-04-01T18:59:25;6.50;99.90
51825;DHT22;37879;52.986;6.282;2023-04-01T19:02:02;6.50;99.90
51825;DHT22;37879;52.986;6.282;2023-04-01T19:04:51;6.40;99.90
51825;DHT22;37879;52.986;6.282;2023-04-01T19:13:07;6.40;99.90
51825;DHT22;37879;52.986;6.282;2023-04-01T19:15:50;6.50;99.90
51825;DHT22;37879;52.986;6.282;2023-04-01T19:21:18;6.40;99.90
51825;DHT22;37879;52.986;6.282;2023-04-01T19:26:37;6.40;99.90
51825;DHT22;37879;52.986;6.282;2023-04-01T19:37:03;6.40;99.90
51825;DHT22;37879;52.986;6.282;2023-04-01T19:50:55;6.30;99.90
51825;DHT22;37879;52.986;6.282;2023-04-01T19:56:47;6.30;99.90
51825;DHT22;37879;52.986;6.282;2023-04-01T20:04:48;6.20;99.90
51825;DHT22;37879;52.986;6.282;2023-04-01T20:10:29;6.10;99.90
51825;DHT22;37879;52.986;6.282;2023-04-01T20:15:34;6.50;99.90
51825;DHT22;37879;52.986;6.282;2023-04-01T20:18:02;6.00;99.90
51825;DHT22;37879;52.986;6.282;2023-04-01T20:20:31;6.00;99.90
51825;DHT22;37879;52.986;6.282;2023-04-01T20:25:54;6.00;99.90
51825;DHT22;37879;52.986;6.282;2023-04-01T20:28:30;6.00;99.90
51825;DHT22;37879;52.986;6.282;2023-04-01T20:45:28;5.80;99.90
51825;DHT22;37879;52.986;6.282;2023-04-01T20:50:52;5.70;99.90
51825;DHT22;37879;52.986;6.282;2023-04-01T20:56:30;5.70;99.90
51825;DHT22;37879;52.986;6.282;2023-04-01T20:59:16;5.70;99.90
51825;DHT22;37879;52.986;6.282;2023-04-01T21:15:58;5.60;99.90
51825;DHT22;37879;52.986;6.282;2023-04-01T21:28:59;5.60;99.90
51825;DHT22;37879;52.986;6.282;2023-04-01T21:34:28;5.60;99.90
51825;DHT22;37879;52.986;6.282;2023-04-01T21:42:49;5.50;99.90
51825;DHT22;37879;52.986;6.282;2023-04-01T21:50:46;5.50;99.90
51825;DHT22;37879;52.986;6.282;2023-04-01T21:59:14;5.50;99.90
51825;DHT22;37879;52.986;6.282;2023-04-01T22:10:19;6.00;99.90
51825;DHT22;37879;52.986;6.282;2023-04-01T22:18:38;5.40;99.90
51825;DHT22;37879;52.986;6.282;2023-04-01T22:32:33;5.40;99.90
51825;DHT22;37879;52.986;6.282;2023-04-01T22:37:54;5.40;99.90
51825;DHT22;37879;52.986;6.282;2023-04-01T22:43:38;5.30;99.90
51825;DHT22;37879;52.986;6.282;2023-04-01T22:48:57;5.30;99.90
51825;DHT22;37879;52.986;6.282;2023-04-01T22:51:40;5.80;99.90
51825;DHT22;37879;52.986;6.282;2023-04-01T22:54:29;5.20;99.90
51825;DHT22;37879;52.986;6.282;2023-04-01T22:57:01;5.20;99.90
51825;DHT22;37879;52.986;6.282;2023-04-01T22:59:35;5.60;99.90
51825;DHT22;37879;52.986;6.282;2023-04-01T23:02:28;5.10;99.90
51825;DHT22;37879;52.986;6.282;2023-04-01T23:04:59;5.10;99.90
51825;DHT22;37879;52.986;6.282;2023-04-01T23:12:58;5.00;99.90
51825;DHT22;37879;52.986;6.282;2023-04-01T23:15:25;4.90;99.90
51825;DHT22;37879;52.986;6.282;2023-04-01T23:26:17;4.80;99.90
51825;DHT22;37879;52.986;6.282;2023-04-01T23:31:38;4.70;99.90
51825;DHT22;37879;52.986;6.282;2023-04-01T23:36:43;5.70;99.90
51825;DHT22;37879;52.986;6.282;2023-04-01T23:39:30;4.60;99.90
51825;DHT22;37879;52.986;6.282;2023-04-01T23:42:15;4.90;99.90
51825;DHT22;37879;52.986;6.282;2023-04-01T23:44:45;4.60;99.90
51825;DHT22;37879;52.986;6.282;2023-04-01T23:47:24;4.60;99.90
51825;DHT22;37879;52.986;6.282;2023-04-01T23:50:22;4.60;99.90
51825;DHT22;37879;52.986;6.282;2023-04-01T23:53:16;4.60;99.90
51825;DHT22;37879;52.986;6.282;2023-04-01T23:55:43;4.60;99.90
51825;DHT22;37879;52.986;6.282;2023-04-01T23:58:52;4.50;99.90
